sensor_id;sensor_type;location;lat;lon;timestamp;P1;durP1;ratioP1;P2;durP2;ratioP2
25279;SDS011;13225;47.804;12.116;2023-10-13T00:01:46;7.95;;;3.72;;
25279;SDS011;13225;47.804;12.116;2023-10-13T00:04:12;8.85;;;4.40;;
25279;SDS011;13225;47.804;12.116;2023-10-13T00:06:37;10.80;;;4.63;;
25279;SDS011;13225;47.804;12.116;2023-10-13T00:09:03;9.82;;;4.22;;
25279;SDS011;13225;47.804;12.116;2023-10-13T00:11:29;9.40;;;4.22;;
25279;SDS011;13225;47.804;12.116;2023-10-13T00:13:55;9.82;;;3.80;;
25279;SDS011;13225;47.804;12.116;2023-10-13T00:16:21;13.13;;;4.40;;
25279;SDS011;13225;47.804;12.116;2023-10-13T00:18:50;9.93;;;4.15;;
25279;SDS011;13225;47.804;12.116;2023-10-13T00:21:19;10.55;;;4.30;;
25279;SDS011;13225;47.804;12.116;2023-10-13T00:23:56;10.95;;;4.47;;
25279;SDS011;13225;47.804;12.116;2023-10-13T00:26:23;12.18;;;4.30;;
25279;SDS011;13225;47.804;12.116;2023-10-13T00:28:54;7.55;;;4.18;;
25279;SDS011;13225;47.804;12.116;2023-10-13T00:31:36;7.43;;;4.38;;
25279;SDS011;13225;47.804;12.116;2023-10-13T00:34:05;11.90;;;4.50;;
25279;SDS011;13225;47.804;12.116;2023-10-13T00:36:37;9.88;;;4.63;;
25279;SDS011;13225;47.804;12.116;2023-10-13T00:39:13;9.23;;;4.05;;
25279;SDS011;13225;47.804;12.116;2023-10-13T00:41:43;8.85;;;3.95;;
25279;SDS011;13225;47.804;12.116;2023-10-13T00:44:17;7.95;;;4.30;;
25279;SDS011;13225;47.804;12.116;2023-10-13T00:46:43;6.38;;;4.00;;
25279;SDS011;13225;47.804;12.116;2023-10-13T00:49:10;12.27;;;5.00;;
25279;SDS011;13225;47.804;12.116;2023-10-13T00:51:40;8.23;;;4.20;;
25279;SDS011;13225;47.804;12.116;2023-10-13T00:54:12;9.98;;;4.68;;
25279;SDS011;13225;47.804;12.116;2023-10-13T00:56:41;10.18;;;4.30;;
25279;SDS011;13225;47.804;12.116;2023-10-13T00:59:33;6.40;;;3.88;;
25279;SDS011;13225;47.804;12.116;2023-10-13T01:02:00;10.02;;;3.95;;
25279;SDS011;13225;47.804;12.116;2023-10-13T01:04:46;9.45;;;4.60;;
25279;SDS011;13225;47.804;12.116;2023-10-13T01:07:12;9.88;;;4.90;;
25279;SDS011;13225;47.804;12.116;2023-10-13T01:09:41;10.07;;;3.92;;
25279;SDS011;13225;47.804;12.116;2023-10-13T01:12:07;11.38;;;4.32;;
25279;SDS011;13225;47.804;12.116;2023-10-13T01:14:33;8.15;;;4.25;;
25279;SDS011;13225;47.804;12.116;2023-10-13T01:17:00;6.25;;;4.03;;
25279;SDS011;13225;47.804;12.116;2023-10-13T01:19:27;8.57;;;4.20;;
25279;SDS011;13225;47.804;12.116;2023-10-13T01:21:53;8.77;;;4.50;;
25279;SDS011;13225;47.804;12.116;2023-10-13T01:24:29;8.60;;;4.20;;
25279;SDS011;13225;47.804;12.116;2023-10-13T01:27:05;7.43;;;3.67;;
25279;SDS011;13225;47.804;12.116;2023-10-13T01:29:50;10.43;;;4.10;;
25279;SDS011;13225;47.804;12.116;2023-10-13T01:32:21;10.23;;;3.80;;
25279;SDS011;13225;47.804;12.116;2023-10-13T01:34:48;9.40;;;3.92;;
25279;SDS011;13225;47.804;12.116;2023-10-13T01:37:15;11.13;;;4.20;;
25279;SDS011;13225;47.804;12.116;2023-10-13T01:39:44;9.93;;;4.05;;
25279;SDS011;13225;47.804;12.116;2023-10-13T01:42:14;10.07;;;3.63;;
25279;SDS011;13225;47.804;12.116;2023-10-13T01:44:44;7.15;;;3.90;;
25279;SDS011;13225;47.804;12.116;2023-10-13T01:47:10;12.23;;;4.00;;
25279;SDS011;13225;47.804;12.116;2023-10-13T01:49:37;5.78;;;3.80;;
25279;SDS011;13225;47.804;12.116;2023-10-13T01:52:08;6.35;;;3.50;;
25279;SDS011;13225;47.804;12.116;2023-10-13T01:54:37;11.35;;;3.92;;
25279;SDS011;13225;47.804;12.116;2023-10-13T01:57:06;12.25;;;4.60;;
25279;SDS011;13225;47.804;12.116;2023-10-13T01:59:32;8.27;;;4.00;;
25279;SDS011;13225;47.804;12.116;2023-10-13T02:01:57;9.98;;;3.97;;
25279;SDS011;13225;47.804;12.116;2023-10-13T02:04:26;8.77;;;3.78;;
25279;SDS011;13225;47.804;12.116;2023-10-13T02:06:52;10.52;;;3.92;;
25279;SDS011;13225;47.804;12.116;2023-10-13T02:09:18;8.07;;;4.15;;
25279;SDS011;13225;47.804;12.116;2023-10-13T02:11:51;8.32;;;4.10;;
25279;SDS011;13225;47.804;12.116;2023-10-13T02:14:22;8.32;;;3.80;;
25279;SDS011;13225;47.804;12.116;2023-10-13T02:16:50;7.15;;;4.18;;
25279;SDS011;13225;47.804;12.116;2023-10-13T02:19:20;9.65;;;3.80;;
25279;SDS011;13225;47.804;12.116;2023-10-13T02:21:46;7.65;;;3.85;;
25279;SDS011;13225;47.804;12.116;2023-10-13T02:24:23;7.85;;;4.18;;
25279;SDS011;13225;47.804;12.116;2023-10-13T02:26:54;7.20;;;3.83;;
25279;SDS011;13225;47.804;12.116;2023-10-13T02:29:21;7.88;;;3.80;;
25279;SDS011;13225;47.804;12.116;2023-10-13T02:31:47;6.47;;;3.65;;
25279;SDS011;13225;47.804;12.116;2023-10-13T02:34:19;8.70;;;4.30;;
25279;SDS011;13225;47.804;12.116;2023-10-13T02:36:47;10.32;;;3.80;;
25279;SDS011;13225;47.804;12.116;2023-10-13T02:39:16;7.30;;;4.00;;
25279;SDS011;13225;47.804;12.116;2023-10-13T02:41:42;10.27;;;4.22;;
25279;SDS011;13225;47.804;12.116;2023-10-13T02:44:13;9.20;;;4.60;;
25279;SDS011;13225;47.804;12.116;2023-10-13T02:46:52;8.07;;;4.25;;
25279;SDS011;13225;47.804;12.116;2023-10-13T02:49:24;7.75;;;4.28;;
25279;SDS011;13225;47.804;12.116;2023-10-13T02:51:52;8.80;;;4.10;;
25279;SDS011;13225;47.804;12.116;2023-10-13T02:54:20;9.95;;;4.40;;
25279;SDS011;13225;47.804;12.116;2023-10-13T02:56:46;7.53;;;4.00;;
25279;SDS011;13225;47.804;12.116;2023-10-13T02:59:21;8.98;;;4.47;;
25279;SDS011;13225;47.804;12.116;2023-10-13T03:02:00;10.43;;;4.53;;
25279;SDS011;13225;47.804;12.116;2023-10-13T03:06:57;8.30;;;4.40;;
25279;SDS011;13225;47.804;12.116;2023-10-13T03:09:24;8.77;;;4.20;;
25279;SDS011;13225;47.804;12.116;2023-10-13T03:11:50;12.60;;;4.82;;
25279;SDS011;13225;47.804;12.116;2023-10-13T03:16:58;9.32;;;4.35;;
25279;SDS011;13225;47.804;12.116;2023-10-13T03:19:30;12.98;;;4.32;;
25279;SDS011;13225;47.804;12.116;2023-10-13T03:22:00;11.55;;;4.63;;
25279;SDS011;13225;47.804;12.116;2023-10-13T03:24:34;6.00;;;3.63;;
25279;SDS011;13225;47.804;12.116;2023-10-13T03:27:01;6.60;;;3.95;;
25279;SDS011;13225;47.804;12.116;2023-10-13T03:32:14;8.15;;;3.60;;
25279;SDS011;13225;47.804;12.116;2023-10-13T03:34:41;5.30;;;3.65;;
25279;SDS011;13225;47.804;12.116;2023-10-13T03:37:19;8.07;;;3.78;;
25279;SDS011;13225;47.804;12.116;2023-10-13T03:40:06;9.82;;;3.88;;
25279;SDS011;13225;47.804;12.116;2023-10-13T03:42:40;9.85;;;4.00;;
25279;SDS011;13225;47.804;12.116;2023-10-13T03:45:06;10.13;;;3.95;;
25279;SDS011;13225;47.804;12.116;2023-10-13T03:47:35;8.57;;;4.15;;
25279;SDS011;13225;47.804;12.116;2023-10-13T03:50:03;11.52;;;4.13;;
25279;SDS011;13225;47.804;12.116;2023-10-13T03:52:54;7.88;;;3.83;;
25279;SDS011;13225;47.804;12.116;2023-10-13T03:55:23;10.13;;;3.60;;
25279;SDS011;13225;47.804;12.116;2023-10-13T03:57:55;6.13;;;3.67;;
25279;SDS011;13225;47.804;12.116;2023-10-13T04:00:24;13.55;;;4.00;;
25279;SDS011;13225;47.804;12.116;2023-10-13T04:02:51;7.00;;;3.72;;
25279;SDS011;13225;47.804;12.116;2023-10-13T04:05:40;8.25;;;3.60;;
25279;SDS011;13225;47.804;12.116;2023-10-13T04:08:07;10.52;;;3.88;;
25279;SDS011;13225;47.804;12.116;2023-10-13T04:10:52;6.28;;;3.95;;
25279;SDS011;13225;47.804;12.116;2023-10-13T04:13:18;6.20;;;3.58;;
25279;SDS011;13225;47.804;12.116;2023-10-13T04:15:49;6.80;;;3.55;;
25279;SDS011;13225;47.804;12.116;2023-10-13T04:18:40;6.55;;;3.50;;
25279;SDS011;13225;47.804;12.116;2023-10-13T04:21:32;10.32;;;3.80;;
25279;SDS011;13225;47.804;12.116;2023-10-13T04:24:06;7.03;;;4.00;;
25279;SDS011;13225;47.804;12.116;2023-10-13T04:26:48;6.53;;;3.88;;
25279;SDS011;13225;47.804;12.116;2023-10-13T04:29:33;11.32;;;3.67;;
25279;SDS011;13225;47.804;12.116;2023-10-13T04:32:18;9.30;;;3.78;;
25279;SDS011;13225;47.804;12.116;2023-10-13T04:35:03;7.13;;;3.83;;
25279;SDS011;13225;47.804;12.116;2023-10-13T04:37:43;5.57;;;3.72;;
25279;SDS011;13225;47.804;12.116;2023-10-13T04:40:17;6.95;;;4.43;;
25279;SDS011;13225;47.804;12.116;2023-10-13T04:42:51;7.97;;;3.60;;
25279;SDS011;13225;47.804;12.116;2023-10-13T04:45:25;15.32;;;4.53;;
25279;SDS011;13225;47.804;12.116;2023-10-13T04:47:56;12.88;;;4.30;;
25279;SDS011;13225;47.804;12.116;2023-10-13T04:50:38;14.07;;;4.28;;
25279;SDS011;13225;47.804;12.116;2023-10-13T04:53:11;7.78;;;3.45;;
25279;SDS011;13225;47.804;12.116;2023-10-13T04:55:57;8.75;;;3.70;;
25279;SDS011;13225;47.804;12.116;2023-10-13T04:58:27;7.07;;;3.85;;
25279;SDS011;13225;47.804;12.116;2023-10-13T05:01:16;9.43;;;4.05;;
25279;SDS011;13225;47.804;12.116;2023-10-13T05:03:51;8.20;;;4.18;;
25279;SDS011;13225;47.804;12.116;2023-10-13T05:06:39;9.75;;;3.60;;
25279;SDS011;13225;47.804;12.116;2023-10-13T05:09:11;6.15;;;3.88;;
25279;SDS011;13225;47.804;12.116;2023-10-13T05:11:56;8.00;;;3.67;;
25279;SDS011;13225;47.804;12.116;2023-10-13T05:14:41;10.15;;;5.47;;
25279;SDS011;13225;47.804;12.116;2023-10-13T05:17:25;6.72;;;3.75;;
25279;SDS011;13225;47.804;12.116;2023-10-13T05:20:09;13.60;;;5.40;;
25279;SDS011;13225;47.804;12.116;2023-10-13T05:22:54;7.70;;;3.90;;
25279;SDS011;13225;47.804;12.116;2023-10-13T05:25:38;7.45;;;3.60;;
25279;SDS011;13225;47.804;12.116;2023-10-13T05:28:23;7.88;;;3.70;;
25279;SDS011;13225;47.804;12.116;2023-10-13T05:31:07;7.00;;;3.78;;
25279;SDS011;13225;47.804;12.116;2023-10-13T05:33:52;8.02;;;3.65;;
25279;SDS011;13225;47.804;12.116;2023-10-13T05:36:37;6.95;;;3.50;;
25279;SDS011;13225;47.804;12.116;2023-10-13T05:39:21;8.95;;;3.85;;
25279;SDS011;13225;47.804;12.116;2023-10-13T05:42:06;7.63;;;3.30;;
25279;SDS011;13225;47.804;12.116;2023-10-13T05:44:50;9.88;;;3.72;;
25279;SDS011;13225;47.804;12.116;2023-10-13T05:47:41;8.00;;;3.40;;
25279;SDS011;13225;47.804;12.116;2023-10-13T05:50:08;5.93;;;3.65;;
25279;SDS011;13225;47.804;12.116;2023-10-13T05:52:46;6.97;;;3.90;;
25279;SDS011;13225;47.804;12.116;2023-10-13T05:55:27;10.57;;;3.55;;
25279;SDS011;13225;47.804;12.116;2023-10-13T05:58:12;10.23;;;3.85;;
25279;SDS011;13225;47.804;12.116;2023-10-13T06:00:56;11.48;;;4.03;;
25279;SDS011;13225;47.804;12.116;2023-10-13T06:03:41;8.23;;;3.58;;
25279;SDS011;13225;47.804;12.116;2023-10-13T06:06:25;7.45;;;3.83;;
25279;SDS011;13225;47.804;12.116;2023-10-13T06:09:10;6.63;;;3.33;;
25279;SDS011;13225;47.804;12.116;2023-10-13T06:11:54;6.40;;;3.42;;
25279;SDS011;13225;47.804;12.116;2023-10-13T06:14:38;6.55;;;3.20;;
25279;SDS011;13225;47.804;12.116;2023-10-13T06:17:28;6.75;;;3.33;;
25279;SDS011;13225;47.804;12.116;2023-10-13T06:20:12;10.50;;;3.70;;
25279;SDS011;13225;47.804;12.116;2023-10-13T06:22:57;8.98;;;4.10;;
25279;SDS011;13225;47.804;12.116;2023-10-13T06:25:41;5.57;;;3.45;;
25279;SDS011;13225;47.804;12.116;2023-10-13T06:28:25;6.82;;;3.40;;
25279;SDS011;13225;47.804;12.116;2023-10-13T06:31:06;12.90;;;3.83;;
25279;SDS011;13225;47.804;12.116;2023-10-13T06:33:32;9.30;;;3.72;;
25279;SDS011;13225;47.804;12.116;2023-10-13T06:36:03;6.97;;;3.60;;
25279;SDS011;13225;47.804;12.116;2023-10-13T06:38:34;10.15;;;3.63;;
25279;SDS011;13225;47.804;12.116;2023-10-13T06:41:06;6.00;;;3.13;;
25279;SDS011;13225;47.804;12.116;2023-10-13T06:43:35;6.85;;;3.97;;
25279;SDS011;13225;47.804;12.116;2023-10-13T06:46:05;6.43;;;3.90;;
25279;SDS011;13225;47.804;12.116;2023-10-13T06:48:32;6.53;;;3.60;;
25279;SDS011;13225;47.804;12.116;2023-10-13T06:50:59;8.20;;;3.78;;
25279;SDS011;13225;47.804;12.116;2023-10-13T06:53:30;6.35;;;3.70;;
25279;SDS011;13225;47.804;12.116;2023-10-13T06:56:05;9.73;;;3.35;;
25279;SDS011;13225;47.804;12.116;2023-10-13T06:58:31;13.73;;;3.85;;
25279;SDS011;13225;47.804;12.116;2023-10-13T07:00:57;7.97;;;3.88;;
25279;SDS011;13225;47.804;12.116;2023-10-13T07:03:24;8.65;;;4.15;;
25279;SDS011;13225;47.804;12.116;2023-10-13T07:05:50;13.50;;;3.92;;
25279;SDS011;13225;47.804;12.116;2023-10-13T07:08:17;6.40;;;3.80;;
25279;SDS011;13225;47.804;12.116;2023-10-13T07:10:51;5.93;;;3.40;;
25279;SDS011;13225;47.804;12.116;2023-10-13T07:13:31;7.32;;;3.13;;
25279;SDS011;13225;47.804;12.116;2023-10-13T07:16:01;7.72;;;3.38;;
25279;SDS011;13225;47.804;12.116;2023-10-13T07:18:33;6.88;;;3.50;;
25279;SDS011;13225;47.804;12.116;2023-10-13T07:21:08;7.50;;;3.22;;
25279;SDS011;13225;47.804;12.116;2023-10-13T07:23:37;11.68;;;3.33;;
25279;SDS011;13225;47.804;12.116;2023-10-13T07:26:03;8.32;;;3.35;;
25279;SDS011;13225;47.804;12.116;2023-10-13T07:28:31;5.63;;;3.00;;
25279;SDS011;13225;47.804;12.116;2023-10-13T07:31:01;7.32;;;3.15;;
25279;SDS011;13225;47.804;12.116;2023-10-13T07:33:27;12.38;;;3.20;;
25279;SDS011;13225;47.804;12.116;2023-10-13T07:35:59;7.75;;;3.40;;
25279;SDS011;13225;47.804;12.116;2023-10-13T07:38:26;7.90;;;3.45;;
25279;SDS011;13225;47.804;12.116;2023-10-13T07:40:56;8.85;;;3.17;;
25279;SDS011;13225;47.804;12.116;2023-10-13T07:43:32;7.15;;;3.20;;
25279;SDS011;13225;47.804;12.116;2023-10-13T07:45:58;8.77;;;3.22;;
25279;SDS011;13225;47.804;12.116;2023-10-13T07:48:24;6.18;;;3.30;;
25279;SDS011;13225;47.804;12.116;2023-10-13T07:51:09;7.75;;;3.30;;
25279;SDS011;13225;47.804;12.116;2023-10-13T07:53:41;5.10;;;3.20;;
25279;SDS011;13225;47.804;12.116;2023-10-13T07:56:08;8.90;;;3.13;;
25279;SDS011;13225;47.804;12.116;2023-10-13T07:58:37;8.15;;;3.13;;
25279;SDS011;13225;47.804;12.116;2023-10-13T08:01:25;8.55;;;3.13;;
25279;SDS011;13225;47.804;12.116;2023-10-13T08:03:51;8.38;;;2.90;;
25279;SDS011;13225;47.804;12.116;2023-10-13T08:06:30;5.03;;;3.00;;
25279;SDS011;13225;47.804;12.116;2023-10-13T08:08:56;7.57;;;2.92;;
25279;SDS011;13225;47.804;12.116;2023-10-13T08:11:33;12.93;;;3.92;;
25279;SDS011;13225;47.804;12.116;2023-10-13T08:14:00;7.15;;;2.88;;
25279;SDS011;13225;47.804;12.116;2023-10-13T08:16:37;9.55;;;3.40;;
25279;SDS011;13225;47.804;12.116;2023-10-13T08:19:19;8.43;;;3.20;;
25279;SDS011;13225;47.804;12.116;2023-10-13T08:21:52;5.88;;;2.85;;
25279;SDS011;13225;47.804;12.116;2023-10-13T08:24:24;7.03;;;3.13;;
25279;SDS011;13225;47.804;12.116;2023-10-13T08:27:14;7.57;;;2.85;;
25279;SDS011;13225;47.804;12.116;2023-10-13T08:30:00;9.65;;;3.72;;
25279;SDS011;13225;47.804;12.116;2023-10-13T08:32:27;6.80;;;3.30;;
25279;SDS011;13225;47.804;12.116;2023-10-13T08:34:57;5.47;;;3.00;;
25279;SDS011;13225;47.804;12.116;2023-10-13T08:37:23;7.70;;;3.47;;
25279;SDS011;13225;47.804;12.116;2023-10-13T08:39:50;8.85;;;3.70;;
25279;SDS011;13225;47.804;12.116;2023-10-13T08:42:32;6.38;;;3.03;;
25279;SDS011;13225;47.804;12.116;2023-10-13T08:45:06;6.10;;;2.72;;
25279;SDS011;13225;47.804;12.116;2023-10-13T08:47:51;7.57;;;3.10;;
25279;SDS011;13225;47.804;12.116;2023-10-13T08:50:24;6.43;;;3.10;;
25279;SDS011;13225;47.804;12.116;2023-10-13T08:53:09;8.18;;;3.30;;
25279;SDS011;13225;47.804;12.116;2023-10-13T08:55:58;8.30;;;3.50;;
25279;SDS011;13225;47.804;12.116;2023-10-13T08:58:26;8.30;;;3.13;;
25279;SDS011;13225;47.804;12.116;2023-10-13T09:01:12;8.57;;;2.90;;
25279;SDS011;13225;47.804;12.116;2023-10-13T09:03:40;7.05;;;3.40;;
25279;SDS011;13225;47.804;12.116;2023-10-13T09:06:12;7.10;;;3.33;;
25279;SDS011;13225;47.804;12.116;2023-10-13T09:08:40;8.48;;;3.15;;
25279;SDS011;13225;47.804;12.116;2023-10-13T09:11:24;7.97;;;3.25;;
25279;SDS011;13225;47.804;12.116;2023-10-13T09:13:52;8.27;;;3.90;;
25279;SDS011;13225;47.804;12.116;2023-10-13T09:16:18;8.20;;;3.55;;
25279;SDS011;13225;47.804;12.116;2023-10-13T09:19:13;7.63;;;3.45;;
25279;SDS011;13225;47.804;12.116;2023-10-13T09:21:40;8.40;;;3.28;;
25279;SDS011;13225;47.804;12.116;2023-10-13T09:24:10;10.63;;;5.53;;
25279;SDS011;13225;47.804;12.116;2023-10-13T09:26:47;6.50;;;3.25;;
25279;SDS011;13225;47.804;12.116;2023-10-13T09:29:18;8.13;;;3.50;;
25279;SDS011;13225;47.804;12.116;2023-10-13T09:31:45;12.05;;;3.78;;
25279;SDS011;13225;47.804;12.116;2023-10-13T09:34:19;12.88;;;4.25;;
25279;SDS011;13225;47.804;12.116;2023-10-13T09:36:46;6.47;;;3.10;;
25279;SDS011;13225;47.804;12.116;2023-10-13T09:39:12;22.85;;;7.03;;
25279;SDS011;13225;47.804;12.116;2023-10-13T09:41:54;8.48;;;3.40;;
25279;SDS011;13225;47.804;12.116;2023-10-13T09:44:24;7.47;;;3.05;;
25279;SDS011;13225;47.804;12.116;2023-10-13T09:46:55;5.85;;;3.17;;
25279;SDS011;13225;47.804;12.116;2023-10-13T09:49:43;4.45;;;2.45;;
25279;SDS011;13225;47.804;12.116;2023-10-13T09:52:17;7.75;;;2.80;;
25279;SDS011;13225;47.804;12.116;2023-10-13T09:54:56;7.28;;;3.35;;
25279;SDS011;13225;47.804;12.116;2023-10-13T09:57:49;5.97;;;2.50;;
25279;SDS011;13225;47.804;12.116;2023-10-13T10:00:23;6.13;;;2.67;;
25279;SDS011;13225;47.804;12.116;2023-10-13T10:03:11;10.00;;;3.10;;
25279;SDS011;13225;47.804;12.116;2023-10-13T10:05:54;5.97;;;2.85;;
25279;SDS011;13225;47.804;12.116;2023-10-13T10:08:28;5.13;;;3.00;;
25279;SDS011;13225;47.804;12.116;2023-10-13T10:17:09;4.20;;;2.70;;
25279;SDS011;13225;47.804;12.116;2023-10-13T10:19:45;6.63;;;2.80;;
25279;SDS011;13225;47.804;12.116;2023-10-13T10:22:12;8.07;;;2.88;;
25279;SDS011;13225;47.804;12.116;2023-10-13T10:24:55;5.95;;;2.53;;
25279;SDS011;13225;47.804;12.116;2023-10-13T10:30:26;5.57;;;2.60;;
25279;SDS011;13225;47.804;12.116;2023-10-13T10:32:56;9.90;;;2.95;;
25279;SDS011;13225;47.804;12.116;2023-10-13T10:35:27;13.32;;;3.00;;
25279;SDS011;13225;47.804;12.116;2023-10-13T10:37:57;6.28;;;2.75;;
25279;SDS011;13225;47.804;12.116;2023-10-13T10:40:37;8.85;;;2.80;;
25279;SDS011;13225;47.804;12.116;2023-10-13T10:43:29;4.82;;;2.60;;
25279;SDS011;13225;47.804;12.116;2023-10-13T10:46:29;9.60;;;2.70;;
25279;SDS011;13225;47.804;12.116;2023-10-13T10:48:56;7.78;;;2.72;;
25279;SDS011;13225;47.804;12.116;2023-10-13T10:51:26;6.87;;;2.83;;
25279;SDS011;13225;47.804;12.116;2023-10-13T10:53:57;8.32;;;3.20;;
25279;SDS011;13225;47.804;12.116;2023-10-13T10:56:36;8.27;;;3.20;;
25279;SDS011;13225;47.804;12.116;2023-10-13T10:59:02;7.97;;;3.65;;
25279;SDS011;13225;47.804;12.116;2023-10-13T11:01:30;9.32;;;3.20;;
25279;SDS011;13225;47.804;12.116;2023-10-13T11:04:04;7.10;;;3.35;;
25279;SDS011;13225;47.804;12.116;2023-10-13T11:06:36;7.47;;;2.92;;
25279;SDS011;13225;47.804;12.116;2023-10-13T11:09:10;8.45;;;3.60;;
25279;SDS011;13225;47.804;12.116;2023-10-13T11:11:51;5.80;;;2.88;;
25279;SDS011;13225;47.804;12.116;2023-10-13T11:14:22;5.85;;;2.92;;
25279;SDS011;13225;47.804;12.116;2023-10-13T11:16:49;16.05;;;4.57;;
25279;SDS011;13225;47.804;12.116;2023-10-13T11:19:18;11.23;;;3.75;;
25279;SDS011;13225;47.804;12.116;2023-10-13T11:21:53;9.13;;;4.72;;
25279;SDS011;13225;47.804;12.116;2023-10-13T11:24:19;9.23;;;3.30;;
25279;SDS011;13225;47.804;12.116;2023-10-13T11:26:46;8.75;;;2.90;;
25279;SDS011;13225;47.804;12.116;2023-10-13T11:29:17;6.15;;;2.90;;
25279;SDS011;13225;47.804;12.116;2023-10-13T11:31:56;12.13;;;4.30;;
25279;SDS011;13225;47.804;12.116;2023-10-13T11:34:24;5.72;;;2.90;;
25279;SDS011;13225;47.804;12.116;2023-10-13T11:36:50;9.68;;;3.13;;
25279;SDS011;13225;47.804;12.116;2023-10-13T11:39:16;11.30;;;3.50;;
25279;SDS011;13225;47.804;12.116;2023-10-13T11:41:44;7.05;;;3.20;;
25279;SDS011;13225;47.804;12.116;2023-10-13T11:44:19;6.82;;;3.08;;
25279;SDS011;13225;47.804;12.116;2023-10-13T11:46:45;10.48;;;3.65;;
25279;SDS011;13225;47.804;12.116;2023-10-13T11:49:13;9.80;;;3.60;;
25279;SDS011;13225;47.804;12.116;2023-10-13T11:51:45;11.40;;;3.22;;
25279;SDS011;13225;47.804;12.116;2023-10-13T11:56:41;8.18;;;3.35;;
25279;SDS011;13225;47.804;12.116;2023-10-13T11:59:07;7.78;;;3.55;;
25279;SDS011;13225;47.804;12.116;2023-10-13T12:01:41;9.23;;;3.55;;
25279;SDS011;13225;47.804;12.116;2023-10-13T12:04:26;8.13;;;2.95;;
25279;SDS011;13225;47.804;12.116;2023-10-13T12:07:10;6.47;;;2.90;;
25279;SDS011;13225;47.804;12.116;2023-10-13T12:09:39;10.05;;;3.60;;
25279;SDS011;13225;47.804;12.116;2023-10-13T12:12:23;5.03;;;2.53;;
25279;SDS011;13225;47.804;12.116;2023-10-13T12:14:53;6.03;;;2.92;;
25279;SDS011;13225;47.804;12.116;2023-10-13T12:17:22;6.35;;;2.70;;
25279;SDS011;13225;47.804;12.116;2023-10-13T12:19:53;7.78;;;2.90;;
25279;SDS011;13225;47.804;12.116;2023-10-13T12:22:22;8.90;;;3.20;;
25279;SDS011;13225;47.804;12.116;2023-10-13T12:25:00;6.40;;;3.00;;
25279;SDS011;13225;47.804;12.116;2023-10-13T12:27:30;10.43;;;2.92;;
25279;SDS011;13225;47.804;12.116;2023-10-13T12:30:11;4.88;;;2.83;;
25279;SDS011;13225;47.804;12.116;2023-10-13T12:32:39;8.32;;;2.88;;
25279;SDS011;13225;47.804;12.116;2023-10-13T12:35:09;6.88;;;2.70;;
25279;SDS011;13225;47.804;12.116;2023-10-13T12:37:35;6.07;;;3.05;;
25279;SDS011;13225;47.804;12.116;2023-10-13T12:40:01;5.35;;;3.15;;
25279;SDS011;13225;47.804;12.116;2023-10-13T12:42:46;4.70;;;2.78;;
25279;SDS011;13225;47.804;12.116;2023-10-13T12:45:30;4.95;;;2.97;;
25279;SDS011;13225;47.804;12.116;2023-10-13T12:48:14;6.78;;;2.95;;
25279;SDS011;13225;47.804;12.116;2023-10-13T12:51:02;7.65;;;3.10;;
25279;SDS011;13225;47.804;12.116;2023-10-13T12:54:05;9.30;;;3.20;;
25279;SDS011;13225;47.804;12.116;2023-10-13T12:56:38;6.13;;;2.67;;
25279;SDS011;13225;47.804;12.116;2023-10-13T12:59:06;7.10;;;3.10;;
25279;SDS011;13225;47.804;12.116;2023-10-13T13:01:34;5.65;;;3.38;;
25279;SDS011;13225;47.804;12.116;2023-10-13T13:04:00;7.68;;;3.00;;
25279;SDS011;13225;47.804;12.116;2023-10-13T13:06:28;6.18;;;3.15;;
25279;SDS011;13225;47.804;12.116;2023-10-13T13:08:56;4.65;;;2.47;;
25279;SDS011;13225;47.804;12.116;2023-10-13T13:11:22;4.13;;;2.50;;
25279;SDS011;13225;47.804;12.116;2023-10-13T13:13:48;8.60;;;2.65;;
25279;SDS011;13225;47.804;12.116;2023-10-13T13:16:14;7.43;;;2.55;;
25279;SDS011;13225;47.804;12.116;2023-10-13T13:18:51;6.22;;;2.83;;
25279;SDS011;13225;47.804;12.116;2023-10-13T13:21:20;3.43;;;2.43;;
25279;SDS011;13225;47.804;12.116;2023-10-13T13:23:49;4.50;;;2.47;;
25279;SDS011;13225;47.804;12.116;2023-10-13T13:26:15;3.28;;;2.50;;
25279;SDS011;13225;47.804;12.116;2023-10-13T13:28:42;6.97;;;2.75;;
25279;SDS011;13225;47.804;12.116;2023-10-13T13:31:10;4.22;;;2.30;;
25279;SDS011;13225;47.804;12.116;2023-10-13T13:33:40;4.35;;;2.28;;
25279;SDS011;13225;47.804;12.116;2023-10-13T13:36:08;9.45;;;2.83;;
25279;SDS011;13225;47.804;12.116;2023-10-13T13:41:13;4.07;;;2.25;;
25279;SDS011;13225;47.804;12.116;2023-10-13T13:43:41;5.65;;;2.50;;
25279;SDS011;13225;47.804;12.116;2023-10-13T13:46:23;8.77;;;2.45;;
25279;SDS011;13225;47.804;12.116;2023-10-13T13:48:52;6.85;;;2.67;;
25279;SDS011;13225;47.804;12.116;2023-10-13T13:51:23;8.38;;;2.67;;
25279;SDS011;13225;47.804;12.116;2023-10-13T13:53:53;8.88;;;2.83;;
25279;SDS011;13225;47.804;12.116;2023-10-13T13:56:19;3.67;;;2.30;;
25279;SDS011;13225;47.804;12.116;2023-10-13T13:58:45;6.07;;;2.85;;
25279;SDS011;13225;47.804;12.116;2023-10-13T14:01:18;6.53;;;3.30;;
25279;SDS011;13225;47.804;12.116;2023-10-13T14:03:46;8.68;;;3.05;;
25279;SDS011;13225;47.804;12.116;2023-10-13T14:06:16;5.13;;;2.55;;
25279;SDS011;13225;47.804;12.116;2023-10-13T14:08:48;5.55;;;2.63;;
25279;SDS011;13225;47.804;12.116;2023-10-13T14:11:16;5.22;;;2.60;;
25279;SDS011;13225;47.804;12.116;2023-10-13T14:14:01;3.97;;;2.58;;
25279;SDS011;13225;47.804;12.116;2023-10-13T14:16:29;4.85;;;2.75;;
25279;SDS011;13225;47.804;12.116;2023-10-13T14:18:58;9.23;;;2.88;;
25279;SDS011;13225;47.804;12.116;2023-10-13T14:21:27;7.72;;;2.90;;
25279;SDS011;13225;47.804;12.116;2023-10-13T14:23:53;5.28;;;2.50;;
25279;SDS011;13225;47.804;12.116;2023-10-13T14:26:19;6.45;;;3.35;;
25279;SDS011;13225;47.804;12.116;2023-10-13T14:28:49;10.20;;;3.10;;
25279;SDS011;13225;47.804;12.116;2023-10-13T14:31:36;4.22;;;2.72;;
25279;SDS011;13225;47.804;12.116;2023-10-13T14:34:02;6.18;;;2.70;;
25279;SDS011;13225;47.804;12.116;2023-10-13T14:36:27;5.88;;;2.63;;
25279;SDS011;13225;47.804;12.116;2023-10-13T14:38:54;6.85;;;2.47;;
25279;SDS011;13225;47.804;12.116;2023-10-13T14:41:20;5.80;;;2.80;;
25279;SDS011;13225;47.804;12.116;2023-10-13T14:43:46;5.35;;;2.92;;
25279;SDS011;13225;47.804;12.116;2023-10-13T14:46:15;5.85;;;2.70;;
25279;SDS011;13225;47.804;12.116;2023-10-13T14:48:48;6.15;;;2.60;;
25279;SDS011;13225;47.804;12.116;2023-10-13T14:51:16;6.80;;;4.10;;
25279;SDS011;13225;47.804;12.116;2023-10-13T14:53:43;5.90;;;2.72;;
25279;SDS011;13225;47.804;12.116;2023-10-13T14:56:12;5.30;;;2.38;;
25279;SDS011;13225;47.804;12.116;2023-10-13T14:58:42;8.57;;;2.90;;
25279;SDS011;13225;47.804;12.116;2023-10-13T15:01:12;5.97;;;3.30;;
25279;SDS011;13225;47.804;12.116;2023-10-13T15:03:50;6.28;;;2.78;;
25279;SDS011;13225;47.804;12.116;2023-10-13T15:06:21;6.38;;;2.97;;
25279;SDS011;13225;47.804;12.116;2023-10-13T15:08:54;6.75;;;2.92;;
25279;SDS011;13225;47.804;12.116;2023-10-13T15:11:24;5.20;;;2.67;;
25279;SDS011;13225;47.804;12.116;2023-10-13T15:14:03;6.03;;;2.70;;
25279;SDS011;13225;47.804;12.116;2023-10-13T15:16:31;7.30;;;3.17;;
25279;SDS011;13225;47.804;12.116;2023-10-13T15:18:58;8.77;;;2.83;;
25279;SDS011;13225;47.804;12.116;2023-10-13T15:21:25;4.80;;;2.53;;
25279;SDS011;13225;47.804;12.116;2023-10-13T15:23:55;8.40;;;3.35;;
25279;SDS011;13225;47.804;12.116;2023-10-13T15:26:28;9.27;;;3.05;;
25279;SDS011;13225;47.804;12.116;2023-10-13T15:28:54;8.23;;;3.05;;
25279;SDS011;13225;47.804;12.116;2023-10-13T15:31:22;7.95;;;3.25;;